sensor_id;sensor_type;location;lat;lon;timestamp;pressure;altitude;pressure_sealevel;temperature;humidity
55077;BME280;40971;44.702;11.030;2023-10-08T00:08:52;102220.78;;;16.49;89.46
55077;BME280;40971;44.702;11.030;2023-10-08T00:19:02;102220.78;;;16.41;89.26
55077;BME280;40971;44.702;11.030;2023-10-08T00:29:10;102221.44;;;16.27;88.16
55077;BME280;40971;44.702;11.030;2023-10-08T00:39:18;102214.97;;;16.29;88.85
55077;BME280;40971;44.702;11.030;2023-10-08T00:49:30;102198.56;;;16.58;88.99
55077;BME280;40971;44.702;11.030;2023-10-08T00:59:44;102204.50;;;16.28;88.45
55077;BME280;40971;44.702;11.030;2023-10-08T01:09:51;102199.69;;;16.40;89.87
55077;BME280;40971;44.702;11.030;2023-10-08T01:19:58;102202.34;;;16.15;88.95
55077;BME280;40971;44.702;11.030;2023-10-08T01:30:23;102199.66;;;15.99;88.63
55077;BME280;40971;44.702;11.030;2023-10-08T01:40:26;102200.66;;;15.56;92.34
55077;BME280;40971;44.702;11.030;2023-10-08T01:50:29;102189.72;;;15.51;91.06
55077;BME280;40971;44.702;11.030;2023-10-08T02:00:32;102170.72;;;15.72;91.52
55077;BME280;40971;44.702;11.030;2023-10-08T02:10:41;102180.75;;;15.52;91.76
55077;BME280;40971;44.702;11.030;2023-10-08T02:20:45;102169.81;;;15.22;93.31
55077;BME280;40971;44.702;11.030;2023-10-08T02:30:47;102154.63;;;14.98;92.42
55077;BME280;40971;44.702;11.030;2023-10-08T02:40:48;102153.38;;;15.10;91.78
55077;BME280;40971;44.702;11.030;2023-10-08T02:50:51;102159.03;;;15.15;91.12
55077;BME280;40971;44.702;11.030;2023-10-08T03:00:56;102163.09;;;15.35;91.27
55077;BME280;40971;44.702;11.030;2023-10-08T03:10:58;102164.53;;;15.55;92.67
55077;BME280;40971;44.702;11.030;2023-10-08T03:21:07;102157.16;;;15.41;92.09
55077;BME280;40971;44.702;11.030;2023-10-08T03:31:23;102149.78;;;15.27;91.57
55077;BME280;40971;44.702;11.030;2023-10-08T03:41:48;102150.94;;;15.25;92.88
55077;BME280;40971;44.702;11.030;2023-10-08T03:52:09;102142.13;;;14.82;96.00
55077;BME280;40971;44.702;11.030;2023-10-08T04:02:13;102145.69;;;14.99;95.23
55077;BME280;40971;44.702;11.030;2023-10-08T04:12:42;102160.78;;;15.32;96.10
55077;BME280;40971;44.702;11.030;2023-10-08T04:22:50;102139.38;;;15.59;95.13
55077;BME280;40971;44.702;11.030;2023-10-08T04:32:52;102149.97;;;15.59;94.90
55077;BME280;40971;44.702;11.030;2023-10-08T04:42:55;102145.19;;;15.29;93.59
55077;BME280;40971;44.702;11.030;2023-10-08T04:53:03;102137.06;;;14.97;93.62
55077;BME280;40971;44.702;11.030;2023-10-08T05:03:10;102138.47;;;14.83;96.38
55077;BME280;40971;44.702;11.030;2023-10-08T05:13:19;102141.38;;;14.98;95.88
55077;BME280;40971;44.702;11.030;2023-10-08T05:23:33;102148.25;;;15.16;95.33
55077;BME280;40971;44.702;11.030;2023-10-08T05:33:55;102155.00;;;15.37;94.52
55077;BME280;40971;44.702;11.030;2023-10-08T05:44:16;102149.88;;;15.43;93.07
55077;BME280;40971;44.702;11.030;2023-10-08T05:54:23;102158.28;;;15.64;92.94
55077;BME280;40971;44.702;11.030;2023-10-08T06:04:29;102187.50;;;15.89;93.01
55077;BME280;40971;44.702;11.030;2023-10-08T06:14:50;102192.56;;;16.16;92.42
55077;BME280;40971;44.702;11.030;2023-10-08T06:25:08;102193.88;;;16.36;91.77
55077;BME280;40971;44.702;11.030;2023-10-08T06:35:24;102203.72;;;16.76;90.80
55077;BME280;40971;44.702;11.030;2023-10-08T06:45:27;102203.06;;;17.45;89.97
55077;BME280;40971;44.702;11.030;2023-10-08T06:55:31;102211.69;;;18.25;88.31
55077;BME280;40971;44.702;11.030;2023-10-08T07:05:35;102214.41;;;18.99;84.11
55077;BME280;40971;44.702;11.030;2023-10-08T07:15:43;102211.88;;;19.06;82.02
55077;BME280;40971;44.702;11.030;2023-10-08T07:26:07;102214.47;;;19.29;82.15
55077;BME280;40971;44.702;11.030;2023-10-08T07:36:20;102213.22;;;19.02;82.14
55077;BME280;40971;44.702;11.030;2023-10-08T07:46:23;102227.66;;;19.45;81.00
55077;BME280;40971;44.702;11.030;2023-10-08T07:56:25;102229.00;;;20.42;77.43
55077;BME280;40971;44.702;11.030;2023-10-08T08:06:27;102231.97;;;21.58;72.92
55077;BME280;40971;44.702;11.030;2023-10-08T08:16:29;102204.63;;;22.42;67.49
55077;BME280;40971;44.702;11.030;2023-10-08T08:26:32;102229.88;;;22.81;65.57
55077;BME280;40971;44.702;11.030;2023-10-08T08:36:41;102223.63;;;22.60;66.31
55077;BME280;40971;44.702;11.030;2023-10-08T08:46:49;102209.94;;;23.34;64.40
55077;BME280;40971;44.702;11.030;2023-10-08T08:56:51;102200.06;;;23.92;62.51
55077;BME280;40971;44.702;11.030;2023-10-08T09:06:54;102196.47;;;24.05;62.76
55077;BME280;40971;44.702;11.030;2023-10-08T09:16:59;102203.69;;;24.11;62.75
55077;BME280;40971;44.702;11.030;2023-10-08T09:27:03;102187.97;;;24.14;62.52
55077;BME280;40971;44.702;11.030;2023-10-08T09:37:05;102177.41;;;24.13;62.25
55077;BME280;40971;44.702;11.030;2023-10-08T09:47:12;102171.06;;;24.32;60.88
55077;BME280;40971;44.702;11.030;2023-10-08T09:57:16;102168.44;;;24.81;59.60
55077;BME280;40971;44.702;11.030;2023-10-08T10:07:21;102170.53;;;25.16;58.56
55077;BME280;40971;44.702;11.030;2023-10-08T10:17:26;102169.69;;;25.70;55.78
55077;BME280;40971;44.702;11.030;2023-10-08T10:27:30;102175.41;;;25.91;54.96
55077;BME280;40971;44.702;11.030;2023-10-08T10:37:33;102158.09;;;26.29;52.35
55077;BME280;40971;44.702;11.030;2023-10-08T10:47:45;102150.84;;;26.64;52.13
55077;BME280;40971;44.702;11.030;2023-10-08T10:57:54;102108.22;;;26.78;49.79
55077;BME280;40971;44.702;11.030;2023-10-08T11:08:16;102112.81;;;27.00;49.81
55077;BME280;40971;44.702;11.030;2023-10-08T11:18:23;102094.66;;;27.36;49.31
55077;BME280;40971;44.702;11.030;2023-10-08T11:28:26;102087.84;;;27.61;47.49
55077;BME280;40971;44.702;11.030;2023-10-08T11:38:40;102071.47;;;27.40;48.57
55077;BME280;40971;44.702;11.030;2023-10-08T11:48:43;102063.50;;;28.06;46.84
55077;BME280;40971;44.702;11.030;2023-10-08T11:58:49;102042.03;;;28.93;45.48
55077;BME280;40971;44.702;11.030;2023-10-08T12:08:53;102012.72;;;29.33;44.25
55077;BME280;40971;44.702;11.030;2023-10-08T12:18:59;101995.34;;;29.34;42.15
55077;BME280;40971;44.702;11.030;2023-10-08T12:29:03;101981.34;;;30.06;41.20
55077;BME280;40971;44.702;11.030;2023-10-08T12:39:04;101978.78;;;29.89;41.88
55077;BME280;40971;44.702;11.030;2023-10-08T12:49:16;101978.31;;;29.71;40.93
55077;BME280;40971;44.702;11.030;2023-10-08T12:59:21;101960.13;;;30.40;38.52
55077;BME280;40971;44.702;11.030;2023-10-08T13:09:25;101952.00;;;30.50;39.07
55077;BME280;40971;44.702;11.030;2023-10-08T13:19:29;101952.91;;;30.81;37.71
55077;BME280;40971;44.702;11.030;2023-10-08T13:29:35;101936.69;;;31.01;37.57
55077;BME280;40971;44.702;11.030;2023-10-08T13:39:36;101932.88;;;30.97;37.10
55077;BME280;40971;44.702;11.030;2023-10-08T13:49:39;101910.59;;;31.35;36.06
55077;BME280;40971;44.702;11.030;2023-10-08T13:59:42;101905.19;;;31.45;33.51
55077;BME280;40971;44.702;11.030;2023-10-08T14:09:43;101893.75;;;31.68;34.14
55077;BME280;40971;44.702;11.030;2023-10-08T14:19:47;101883.44;;;31.65;31.68
55077;BME280;40971;44.702;11.030;2023-10-08T14:29:53;101889.41;;;31.52;30.22
55077;BME280;40971;44.702;11.030;2023-10-08T14:39:54;101891.53;;;31.81;33.26
55077;BME280;40971;44.702;11.030;2023-10-08T14:50:14;101883.66;;;31.84;32.51
55077;BME280;40971;44.702;11.030;2023-10-08T15:00:20;101873.63;;;31.64;33.47
55077;BME280;40971;44.702;11.030;2023-10-08T15:10:28;101871.47;;;31.41;33.26
55077;BME280;40971;44.702;11.030;2023-10-08T15:20:31;101881.00;;;31.29;34.27
55077;BME280;40971;44.702;11.030;2023-10-08T15:30:33;101885.28;;;30.74;34.01
55077;BME280;40971;44.702;11.030;2023-10-08T15:40:34;101883.31;;;30.44;36.03
55077;BME280;40971;44.702;11.030;2023-10-08T15:50:37;101870.97;;;30.22;36.62
55077;BME280;40971;44.702;11.030;2023-10-08T16:00:39;101868.09;;;29.81;38.70
55077;BME280;40971;44.702;11.030;2023-10-08T16:10:41;101874.63;;;29.49;39.37
55077;BME280;40971;44.702;11.030;2023-10-08T16:20:46;101890.34;;;28.88;39.19
55077;BME280;40971;44.702;11.030;2023-10-08T16:30:49;101893.56;;;27.60;44.65
55077;BME280;40971;44.702;11.030;2023-10-08T16:40:55;101914.06;;;26.43;49.52
55077;BME280;40971;44.702;11.030;2023-10-08T16:50:56;101924.59;;;25.40;52.45
55077;BME280;40971;44.702;11.030;2023-10-08T17:00:59;101933.19;;;24.59;55.29
55077;BME280;40971;44.702;11.030;2023-10-08T17:11:01;101940.78;;;23.83;58.13
55077;BME280;40971;44.702;11.030;2023-10-08T17:21:03;101950.00;;;23.69;57.21
55077;BME280;40971;44.702;11.030;2023-10-08T17:31:05;101950.41;;;23.03;60.51
55077;BME280;40971;44.702;11.030;2023-10-08T17:41:07;101954.41;;;22.30;58.35
55077;BME280;40971;44.702;11.030;2023-10-08T17:51:09;101949.91;;;21.59;65.75
55077;BME280;40971;44.702;11.030;2023-10-08T18:01:13;101943.34;;;22.07;63.79
55077;BME280;40971;44.702;11.030;2023-10-08T18:11:16;101954.88;;;22.08;62.25
55077;BME280;40971;44.702;11.030;2023-10-08T18:21:20;101982.81;;;21.26;64.97
55077;BME280;40971;44.702;11.030;2023-10-08T18:31:23;101999.22;;;20.69;67.49
55077;BME280;40971;44.702;11.030;2023-10-08T18:41:26;102005.66;;;20.81;67.08
55077;BME280;40971;44.702;11.030;2023-10-08T18:51:28;102004.78;;;20.68;67.67
55077;BME280;40971;44.702;11.030;2023-10-08T19:01:31;102020.91;;;19.98;69.94
55077;BME280;40971;44.702;11.030;2023-10-08T19:11:33;102011.31;;;20.03;69.78
55077;BME280;40971;44.702;11.030;2023-10-08T19:21:35;102021.19;;;20.30;70.22
55077;BME280;40971;44.702;11.030;2023-10-08T19:31:39;102030.91;;;19.89;68.25
55077;BME280;40971;44.702;11.030;2023-10-08T19:41:40;102030.88;;;19.47;72.07
55077;BME280;40971;44.702;11.030;2023-10-08T19:51:43;102013.50;;;19.51;70.56
55077;BME280;40971;44.702;11.030;2023-10-08T20:01:44;102037.00;;;20.04;70.99
55077;BME280;40971;44.702;11.030;2023-10-08T20:11:45;102047.28;;;18.79;75.55
55077;BME280;40971;44.702;11.030;2023-10-08T20:21:54;102051.34;;;19.10;74.38
55077;BME280;40971;44.702;11.030;2023-10-08T20:31:56;102062.19;;;19.24;75.86
55077;BME280;40971;44.702;11.030;2023-10-08T20:42:02;102077.13;;;19.03;76.47
55077;BME280;40971;44.702;11.030;2023-10-08T20:52:09;102079.50;;;18.84;76.10
55077;BME280;40971;44.702;11.030;2023-10-08T21:02:11;102094.00;;;18.52;75.90
55077;BME280;40971;44.702;11.030;2023-10-08T21:12:15;102082.88;;;18.63;76.24
55077;BME280;40971;44.702;11.030;2023-10-08T21:22:19;102076.34;;;18.51;76.95
55077;BME280;40971;44.702;11.030;2023-10-08T21:32:22;102082.38;;;18.68;77.48
55077;BME280;40971;44.702;11.030;2023-10-08T21:42:23;102089.38;;;18.23;76.55
55077;BME280;40971;44.702;11.030;2023-10-08T21:52:26;102082.31;;;18.16;77.05
55077;BME280;40971;44.702;11.030;2023-10-08T22:02:44;102082.66;;;17.67;82.56
55077;BME280;40971;44.702;11.030;2023-10-08T22:12:48;102081.25;;;17.18;82.04
55077;BME280;40971;44.702;11.030;2023-10-08T22:22:50;102081.75;;;16.34;82.93
55077;BME280;40971;44.702;11.030;2023-10-08T22:32:55;102060.69;;;16.41;82.74
55077;BME280;40971;44.702;11.030;2023-10-08T22:42:58;102065.31;;;16.63;83.08
55077;BME280;40971;44.702;11.030;2023-10-08T22:53:02;102063.84;;;16.52;84.37
55077;BME280;40971;44.702;11.030;2023-10-08T23:03:06;102069.47;;;16.65;84.76
55077;BME280;40971;44.702;11.030;2023-10-08T23:13:09;102056.13;;;16.81;84.07
55077;BME280;40971;44.702;11.030;2023-10-08T23:23:13;102055.50;;;16.79;81.91
55077;BME280;40971;44.702;11.030;2023-10-08T23:33:17;102057.84;;;16.66;82.40
55077;BME280;40971;44.702;11.030;2023-10-08T23:43:21;102048.59;;;16.22;81.12
55077;BME280;40971;44.702;11.030;2023-10-08T23:53:23;102052.59;;;16.10;82.77
